AT-0002 weather

Scalaria Airchallenge Water Landing Area
Lake Wolfgang, Upper Austria, Austria

Public forecast

Using degrees Celsius for public forecast. Weather courtesy of forecast.io.

Closest aviation weather report (METAR) to Scalaria Airchallenge Water Landing Area

Closest report is Salzburg Airport, 18.1 nm (33.5 km) WNW. Retrieved 2020/02/18 21:20 UTC (0 seconds ago):

LOWS 182120Z VRB01KT 9999 BKN060 06/M02 Q1027 NOSIG

Closest aviation forecast (TAF) to Scalaria Airchallenge Water Landing Area

Closest forecast is Salzburg Airport, 18.1 nm (33.5 km) WNW. Retrieved 2020/02/18 18:21 UTC (3 hours ago):

TAF LOWS 181715Z 1818/1918 30005KT 9999 SCT060 TX06/1911Z TN02/1901Z BECMG 1818/1820 15006KT TEMPO 1900/1907 16012KT CAVOK BECMG 1907/1909 28006KT SCT050 BKN070 TEMPO 1909/1911 28010KT -SHRA SCT030 BKN050 TEMPO 1911/1915 29015G30KT 4000 SHRA SCT025TCU BKN050 PROB30 TEMPO 1912/1915 30020G35KT 2500 TSRASN SCT020CB BKN035 TEMPO 1915/1918 29012G22KT -SHSN BKN040